Time;durP1;ratioP1;P1;durP2;ratioP2;P2;SDS_P1;SDS_P2;PMS_P1;PMS_P2;Temp;Humidity;BMP_temperature;BMP_pressure;BME280_temperature;BME280_humidity;BME280_pressure;Samples;Min_cycle;Max_cycle;Signal;HPM_P1;HPM_P2
2024/03/07 00:01:21;;;;;;;6.05;3.35;;;4.80;99.90;;;;;;4964947;28;20047;-84
2024/03/07 00:03:47;;;;;;;1.90;1.77;;;4.70;99.90;;;;;;4963982;28;20050;-84
2024/03/07 00:06:13;;;;;;;4.03;3.70;;;4.70;99.90;;;;;;4963963;28;20031;-84
2024/03/07 00:08:40;;;;;;;5.25;2.45;;;4.60;99.90;;;;;;4982184;28;20031;-83
2024/03/07 00:11:07;;;;;;;1.70;1.42;;;4.40;99.90;;;;;;4967968;28;20043;-84
2024/03/07 00:13:33;;;;;;;3.38;3.08;;;4.30;99.90;;;;;;4955429;28;20039;-84
2024/03/07 00:15:59;;;;;;;3.38;3.05;;;4.30;1.00;;;;;;4962163;28;20039;-84
2024/03/07 00:18:26;;;;;;;13.82;4.47;;;4.20;1.00;;;;;;4961038;28;20503;-83
2024/03/07 00:20:54;;;;;;;7.65;2.58;;;4.10;1.00;;;;;;4960669;28;20035;-83
2024/03/07 00:23:20;;;;;;;3.42;3.15;;;4.10;1.00;;;;;;4966963;28;20047;-83
2024/03/07 00:25:50;;;;;;;1.80;1.70;;;4.10;1.00;;;;;;4963297;28;20046;-84
2024/03/07 00:28:17;;;;;;;2.70;2.50;;;4.00;1.00;;;;;;4968278;28;20038;-84
2024/03/07 00:30:47;;;;;;;4.55;4.22;;;4.10;1.00;;;;;;4963005;28;20039;-83
2024/03/07 00:33:13;;;;;;;0.98;0.90;;;4.00;1.00;;;;;;4962469;28;20038;-82
2024/03/07 00:35:40;;;;;;;6.22;3.58;;;3.90;1.00;;;;;;4953885;28;20062;-83
2024/03/07 00:38:06;;;;;;;6.95;4.88;;;4.00;1.00;;;;;;4963518;28;20035;-83
2024/03/07 00:40:32;;;;;;;9.05;5.03;;;3.90;1.00;;;;;;4966217;28;20043;-83
2024/03/07 00:42:59;;;;;;;3.47;3.17;;;3.90;1.00;;;;;;4965840;28;20058;-83
2024/03/07 00:45:26;;;;;;;4.45;4.07;;;3.90;1.00;;;;;;4963213;28;20397;-83
2024/03/07 00:47:52;;;;;;;4.45;3.75;;;3.90;1.00;;;;;;4962160;28;20041;-83
2024/03/07 00:50:18;;;;;;;2.38;2.28;;;3.90;1.00;;;;;;4959902;28;20027;-83
2024/03/07 00:52:44;;;;;;;3.13;2.92;;;3.90;1.00;;;;;;4965921;28;20031;-83
2024/03/07 00:55:11;;;;;;;16.02;6.80;;;3.90;1.00;;;;;;4964673;28;20039;-83
2024/03/07 00:57:37;;;;;;;3.60;3.40;;;3.90;1.00;;;;;;4968322;28;20047;-83
2024/03/07 01:00:03;;;;;;;6.45;2.72;;;4.00;1.00;;;;;;4963951;28;20054;-83
2024/03/07 01:02:30;;;;;;;4.45;3.47;;;4.10;1.00;;;;;;4963267;28;20031;-83
2024/03/07 01:04:56;;;;;;;16.70;4.10;;;4.20;1.00;;;;;;4959892;28;20069;-83
2024/03/07 01:07:23;;;;;;;3.53;3.22;;;4.20;1.00;;;;;;4963570;28;20045;-83
2024/03/07 01:09:50;;;;;;;10.10;6.03;;;4.30;1.00;;;;;;4966510;28;20050;-79
2024/03/07 01:12:17;;;;;;;4.15;3.75;;;4.40;1.00;;;;;;4964922;28;20031;-83
2024/03/07 01:14:43;;;;;;;12.55;5.30;;;4.40;1.00;;;;;;4965201;28;20042;-82
2024/03/07 01:17:09;;;;;;;8.07;4.78;;;4.40;1.00;;;;;;4961408;28;20035;-83
2024/03/07 01:19:35;;;;;;;4.75;4.18;;;4.40;1.00;;;;;;4964278;28;20043;-83
2024/03/07 01:22:01;;;;;;;3.70;3.42;;;4.50;1.00;;;;;;4965838;28;20061;-82
2024/03/07 01:24:28;;;;;;;4.63;3.63;;;4.50;1.00;;;;;;4965240;28;20047;-83
2024/03/07 01:26:54;;;;;;;4.78;4.05;;;4.50;99.90;;;;;;4950862;28;20062;-82
2024/03/07 01:29:20;;;;;;;22.42;6.32;;;4.60;99.90;;;;;;4964888;28;20035;-84
2024/03/07 01:31:46;;;;;;;6.47;5.35;;;4.60;99.90;;;;;;4978240;28;20026;-82
2024/03/07 01:34:12;;;;;;;3.13;2.85;;;4.70;99.90;;;;;;4962222;28;20035;-83
2024/03/07 01:36:39;;;;;;;6.28;4.22;;;4.70;99.90;;;;;;4964824;28;20453;-82
2024/03/07 01:39:05;;;;;;;4.13;3.70;;;4.70;99.90;;;;;;4967619;28;20035;-83
2024/03/07 01:41:31;;;;;;;12.77;5.28;;;4.70;99.90;;;;;;4968468;28;20043;-84
2024/03/07 01:43:57;;;;;;;4.65;4.22;;;4.70;99.90;;;;;;4962239;28;20058;-82
2024/03/07 01:46:24;;;;;;;6.45;4.63;;;4.80;99.90;;;;;;4961733;28;20468;-84
2024/03/07 01:48:51;;;;;;;10.13;4.90;;;4.80;99.90;;;;;;4969700;28;20061;-79
2024/03/07 01:51:17;;;;;;;9.07;7.20;;;4.70;99.90;;;;;;4971882;28;20053;-84
2024/03/07 01:53:43;;;;;;;3.55;3.25;;;4.70;99.90;;;;;;4969338;28;20031;-84
2024/03/07 01:56:09;;;;;;;5.57;3.50;;;4.70;99.90;;;;;;4972839;28;20384;-83
2024/03/07 01:58:36;;;;;;;4.47;3.85;;;4.70;99.90;;;;;;4994051;28;20039;-81
2024/03/07 02:01:02;;;;;;;7.40;4.32;;;4.60;99.90;;;;;;4990712;28;20039;-83
2024/03/07 02:03:29;;;;;;;8.13;3.80;;;4.50;99.90;;;;;;4971193;28;20043;-80
2024/03/07 02:05:56;;;;;;;7.55;3.75;;;4.40;99.90;;;;;;4966821;28;20043;-82
2024/03/07 02:08:22;;;;;;;6.97;4.93;;;4.30;1.00;;;;;;4969271;28;20371;-83
2024/03/07 02:10:48;;;;;;;8.77;6.15;;;4.20;1.00;;;;;;4956285;28;20047;-83
2024/03/07 02:13:14;;;;;;;10.77;3.95;;;4.10;1.00;;;;;;4955346;28;20042;-83
2024/03/07 02:15:42;;;;;;;3.30;2.58;;;4.10;1.00;;;;;;4964442;28;20046;-83
2024/03/07 02:18:09;;;;;;;5.85;2.83;;;4.00;1.00;;;;;;4967671;28;20039;-83
2024/03/07 02:20:35;;;;;;;6.32;5.03;;;3.80;1.00;;;;;;4975410;28;20139;-83
2024/03/07 02:23:02;;;;;;;6.22;3.13;;;3.80;1.00;;;;;;4971101;28;20054;-83
2024/03/07 02:25:28;;;;;;;3.50;3.17;;;3.70;1.00;;;;;;4968698;28;20050;-83
2024/03/07 02:27:54;;;;;;;4.22;3.35;;;3.60;1.00;;;;;;4968846;28;20031;-83
2024/03/07 02:30:21;;;;;;;4.00;2.88;;;3.50;1.00;;;;;;4966401;28;20487;-83
2024/03/07 02:32:54;;;;;;;5.43;3.78;;;3.50;1.00;;;;;;4962573;28;20106;-83
2024/03/07 02:35:20;;;;;;;7.53;4.25;;;3.40;1.00;;;;;;4969226;28;20111;-83
2024/03/07 02:37:46;;;;;;;8.73;4.55;;;3.30;1.00;;;;;;4968000;28;20038;-82
2024/03/07 02:40:13;;;;;;;4.20;3.85;;;3.20;1.80;;;;;;4963549;28;20040;-83
2024/03/07 02:42:39;;;;;;;4.10;3.20;;;3.20;27.90;;;;;;4970158;28;20480;-81
2024/03/07 02:45:06;;;;;;;5.75;4.30;;;3.20;26.60;;;;;;4965013;28;20050;-82
2024/03/07 02:47:33;;;;;;;3.13;2.83;;;2.90;29.30;;;;;;4957866;28;20058;-83
2024/03/07 02:49:59;;;;;;;11.90;5.75;;;2.80;53.50;;;;;;4965393;28;20050;-80
2024/03/07 02:52:25;;;;;;;7.38;4.68;;;2.70;99.60;;;;;;4968629;28;20035;-82
2024/03/07 02:54:51;;;;;;;4.80;4.40;;;2.60;99.90;;;;;;4962913;28;20039;-83
2024/03/07 02:57:18;;;;;;;2.58;2.38;;;2.50;99.90;;;;;;4969090;28;20111;-82
2024/03/07 02:59:44;;;;;;;3.10;2.83;;;2.40;99.90;;;;;;4965718;28;20035;-82
2024/03/07 03:02:10;;;;;;;7.10;3.80;;;2.50;99.90;;;;;;4963754;28;20041;-82
2024/03/07 03:04:36;;;;;;;3.15;2.85;;;2.50;99.90;;;;;;4960767;28;20058;-82
2024/03/07 03:07:02;;;;;;;2.28;2.10;;;2.50;99.90;;;;;;4964084;28;20032;-83
2024/03/07 03:09:28;;;;;;;4.50;4.10;;;2.50;99.90;;;;;;4965083;28;20405;-83
2024/03/07 03:11:55;;;;;;;3.10;2.83;;;2.60;99.90;;;;;;4969516;28;20031;-83
2024/03/07 03:14:21;;;;;;;1.70;1.60;;;2.50;99.90;;;;;;4966943;28;20039;-82
2024/03/07 03:16:47;;;;;;;11.93;5.90;;;2.30;99.90;;;;;;4967470;28;20034;-83
2024/03/07 03:19:13;;;;;;;4.45;3.67;;;2.20;99.90;;;;;;4970483;28;20034;-83
2024/03/07 03:21:40;;;;;;;4.97;3.53;;;2.20;99.90;;;;;;4963735;28;20039;-82
2024/03/07 03:24:07;;;;;;;4.97;3.03;;;2.00;99.90;;;;;;4966111;28;20043;-82
2024/03/07 03:26:33;;;;;;;3.97;3.67;;;1.90;99.90;;;;;;4967859;28;20381;-83
2024/03/07 03:28:59;;;;;;;13.95;6.22;;;1.90;99.90;;;;;;4966046;28;20030;-83
2024/03/07 03:31:26;;;;;;;3.67;3.08;;;2.00;99.90;;;;;;4967783;28;20034;-82
2024/03/07 03:33:52;;;;;;;3.90;3.40;;;2.00;99.90;;;;;;4958919;28;20042;-82
2024/03/07 03:36:19;;;;;;;6.63;3.67;;;1.80;99.90;;;;;;4964555;28;20035;-83
2024/03/07 03:38:45;;;;;;;4.93;3.35;;;1.70;99.90;;;;;;4967403;28;20034;-83
2024/03/07 03:41:16;;;;;;;5.82;4.18;;;1.60;99.90;;;;;;4967197;28;20388;-82
2024/03/07 03:43:43;;;;;;;3.58;3.28;;;1.70;99.90;;;;;;4962727;28;20054;-79
2024/03/07 03:46:11;;;;;;;7.72;4.75;;;1.70;99.90;;;;;;4965923;28;20054;-83
2024/03/07 03:48:41;;;;;;;4.32;4.10;;;1.70;99.90;;;;;;4962285;28;20043;-82
2024/03/07 03:51:08;;;;;;;2.28;1.75;;;1.70;99.90;;;;;;4913366;29;20052;-82
2024/03/07 03:53:36;;;;;;;4.15;2.47;;;1.50;99.90;;;;;;4911006;29;20040;-83
2024/03/07 03:56:06;;;;;;;4.88;3.55;;;1.30;99.90;;;;;;4913272;29;20148;-82
2024/03/07 03:58:32;;;;;;;9.57;2.63;;;1.30;99.90;;;;;;4912585;29;20044;-82
2024/03/07 04:00:58;;;;;;;17.65;4.82;;;1.20;99.90;;;;;;4913708;29;20051;-82
2024/03/07 04:03:25;;;;;;;4.15;2.67;;;1.10;99.90;;;;;;4913674;29;20036;-81
2024/03/07 04:05:51;;;;;;;3.83;3.63;;;1.20;99.90;;;;;;4914210;29;20056;-83
2024/03/07 04:08:20;;;;;;;2.97;2.72;;;1.10;99.90;;;;;;4914428;29;20040;-83
2024/03/07 04:10:46;;;;;;;2.40;2.08;;;1.10;1.00;;;;;;4914766;29;20153;-83
2024/03/07 04:13:13;;;;;;;5.63;4.80;;;1.20;1.00;;;;;;4911862;29;20084;-82
2024/03/07 04:15:39;;;;;;;5.43;4.65;;;1.20;1.00;;;;;;4905540;29;20051;-83
2024/03/07 04:18:07;;;;;;;5.80;3.10;;;1.10;1.00;;;;;;4906734;29;20044;-83
2024/03/07 04:20:33;;;;;;;2.70;2.50;;;1.00;99.90;;;;;;4903650;29;20048;-78
2024/03/07 04:22:59;;;;;;;5.07;4.53;;;0.90;99.90;;;;;;4956679;28;20043;-82
2024/03/07 04:25:25;;;;;;;4.78;4.38;;;0.80;99.90;;;;;;4968432;28;20050;-82
2024/03/07 04:27:51;;;;;;;5.38;2.78;;;0.70;1.00;;;;;;4965307;28;20038;-83
2024/03/07 04:30:17;;;;;;;2.17;2.08;;;0.70;1.00;;;;;;4973291;28;20038;-82
2024/03/07 04:32:43;;;;;;;2.20;2.10;;;0.70;1.00;;;;;;4966680;28;20390;-83
2024/03/07 04:35:10;;;;;;;8.82;3.08;;;0.70;1.00;;;;;;4971414;28;20576;-82
2024/03/07 04:37:39;;;;;;;2.58;2.38;;;0.70;1.00;;;;;;4968749;28;20039;-82
2024/03/07 04:40:14;;;;;;;3.53;3.00;;;0.60;1.00;;;;;;4971243;28;20457;-80
2024/03/07 04:42:45;;;;;;;4.55;4.18;;;0.50;1.00;;;;;;4990644;28;20053;-82
2024/03/07 04:45:13;;;;;;;7.50;4.97;;;0.40;1.00;;;;;;4980798;28;20466;-82
2024/03/07 04:47:41;;;;;;;5.07;4.60;;;0.40;99.90;;;;;;4973710;28;20031;-82
2024/03/07 04:50:10;;;;;;;9.88;4.47;;;0.30;99.90;;;;;;4959866;28;20061;-80
2024/03/07 04:52:37;;;;;;;2.38;2.25;;;0.20;1.00;;;;;;4963771;28;20059;-82
2024/03/07 04:55:08;;;;;;;5.85;4.43;;;0.20;1.00;;;;;;4966703;28;20112;-82
2024/03/07 04:57:39;;;;;;;6.70;3.72;;;0.10;1.00;;;;;;4959159;28;20027;-83
2024/03/07 05:00:14;;;;;;;;;;;0.20;1.00;;;;;;4960015;28;20047;-77
2024/03/07 05:02:41;;;;;;;4.95;4.50;;;0.10;1.00;;;;;;4959924;28;19910;-80
2024/03/07 05:05:07;;;;;;;4.80;3.25;;;0.00;1.00;;;;;;4964361;28;20035;-80
2024/03/07 05:07:35;;;;;;;7.25;4.35;;;0.00;1.00;;;;;;4961904;28;20043;-78
2024/03/07 05:10:04;;;;;;;3.70;3.40;;;0.00;1.00;;;;;;4950279;28;20046;-78
2024/03/07 05:12:31;;;;;;;3.75;3.38;;;0.00;16.70;;;;;;4964105;28;20489;-78
2024/03/07 05:14:57;;;;;;;2.67;2.47;;;-0.10;62.00;;;;;;4967684;28;20473;-76
2024/03/07 05:17:23;;;;;;;6.68;3.80;;;-0.10;60.20;;;;;;4960622;28;20035;-78
2024/03/07 05:19:49;;;;;;;1.40;1.30;;;-0.20;81.20;;;;;;4960142;28;20042;-79
2024/03/07 05:22:16;;;;;;;4.93;2.55;;;-0.20;99.90;;;;;;4960632;28;20058;-79
2024/03/07 05:24:42;;;;;;;9.95;3.88;;;-0.20;99.90;;;;;;4942670;28;20054;-79
2024/03/07 05:27:11;;;;;;;2.28;1.27;;;-0.10;99.90;;;;;;4964136;28;20042;-77
2024/03/07 05:29:38;;;;;;;7.22;4.28;;;-0.20;99.90;;;;;;4968837;28;20042;-78
2024/03/07 05:32:20;;;;;;;4.18;2.42;;;-0.10;99.90;;;;;;4954003;28;20039;-77
2024/03/07 05:34:46;;;;;;;8.82;4.18;;;-0.20;99.90;;;;;;4967600;28;20046;-79
2024/03/07 05:37:13;;;;;;;4.18;3.17;;;-0.30;99.90;;;;;;4967522;28;20031;-78
2024/03/07 05:39:39;;;;;;;2.65;2.45;;;-0.20;99.90;;;;;;4967567;28;20054;-79
2024/03/07 05:42:07;;;;;;;3.67;3.45;;;-0.30;99.90;;;;;;4964275;28;20472;-78
2024/03/07 05:44:33;;;;;;;4.72;3.08;;;-0.30;99.90;;;;;;4968793;28;20476;-79
2024/03/07 05:46:59;;;;;;;4.78;1.48;;;-0.30;99.90;;;;;;4968304;28;20023;-77
2024/03/07 05:49:26;;;;;;;3.88;3.63;;;-0.40;99.90;;;;;;4962796;28;20027;-77
2024/03/07 05:51:52;;;;;;;5.00;2.53;;;-0.40;99.90;;;;;;4969541;28;20035;-77
2024/03/07 05:54:18;;;;;;;1.73;1.63;;;-0.40;99.90;;;;;;4966757;28;20058;-78
2024/03/07 05:56:44;;;;;;;4.47;4.07;;;-0.50;99.90;;;;;;4964356;28;20042;-78
2024/03/07 05:59:10;;;;;;;5.25;3.05;;;-0.30;99.90;;;;;;4965943;28;20061;-77
2024/03/07 06:01:37;;;;;;;5.55;2.30;;;-0.20;99.90;;;;;;4965379;28;20031;-78
2024/03/07 06:04:07;;;;;;;1.77;1.67;;;-0.30;99.90;;;;;;4962528;28;20465;-77
2024/03/07 06:06:34;;;;;;;2.58;2.38;;;-0.40;99.90;;;;;;4967810;28;20039;-79
2024/03/07 06:09:07;;;;;;;3.00;2.50;;;-0.40;99.90;;;;;;4963145;28;20031;-78
2024/03/07 06:11:41;;;;;;;4.25;3.95;;;-0.40;99.90;;;;;;4964619;28;20042;-78
2024/03/07 06:14:08;;;;;;;4.18;2.25;;;-0.40;99.90;;;;;;4958707;28;20503;-79
2024/03/07 06:16:38;;;;;;;8.13;3.15;;;-0.40;99.90;;;;;;4967779;28;20035;-77
2024/03/07 06:19:09;;;;;;;4.22;1.27;;;-0.30;99.90;;;;;;4963771;28;20038;-78
2024/03/07 06:21:36;;;;;;;8.18;5.57;;;-0.40;99.90;;;;;;4964448;28;20054;-79
2024/03/07 06:24:03;;;;;;;4.47;4.07;;;-0.40;98.10;;;;;;4965349;28;20037;-78
2024/03/07 06:26:44;;;;;;;12.43;5.93;;;-0.40;90.60;;;;;;4967065;28;20031;-79
2024/03/07 06:29:15;;;;;;;;;;;-0.20;99.90;;;;;;4962841;28;20043;-79
2024/03/07 06:31:42;;;;;;;2.28;2.17;;;-0.10;99.90;;;;;;4962325;28;19910;-79
2024/03/07 06:34:09;;;;;;;1.98;1.88;;;-0.10;62.40;;;;;;4964647;28;20055;-77
2024/03/07 06:36:35;;;;;;;2.17;2.03;;;0.00;25.40;;;;;;4966989;28;20406;-79
2024/03/07 06:39:04;;;;;;;7.43;4.68;;;-0.10;1.00;;;;;;4968328;28;20057;-76
2024/03/07 06:41:34;;;;;;;3.67;2.92;;;-0.10;1.00;;;;;;4967158;28;20357;-78
2024/03/07 06:44:00;;;;;;;2.50;2.30;;;0.00;1.00;;;;;;4947938;28;20065;-79
2024/03/07 06:46:27;;;;;;;6.57;5.90;;;0.10;1.00;;;;;;4964213;28;20038;-79
2024/03/07 06:48:53;;;;;;;4.93;3.08;;;0.30;1.00;;;;;;4961808;28;20040;-79
2024/03/07 06:51:20;;;;;;;2.35;2.25;;;0.50;1.00;;;;;;4963623;28;20031;-80
2024/03/07 06:53:50;;;;;;;5.45;4.85;;;0.60;1.00;;;;;;4965152;28;20786;-79
2024/03/07 06:56:16;;;;;;;8.77;6.13;;;0.80;1.00;;;;;;4960677;28;20378;-81
2024/03/07 06:58:45;;;;;;;3.42;1.92;;;1.00;99.90;;;;;;4964886;28;20034;-79
2024/03/07 07:01:15;;;;;;;3.15;2.90;;;1.10;99.90;;;;;;4959532;28;20053;-78
2024/03/07 07:03:45;;;;;;;3.53;3.25;;;1.30;99.90;;;;;;4959595;28;20496;-79
2024/03/07 07:06:12;;;;;;;4.97;4.57;;;1.60;99.90;;;;;;4961303;28;20388;-77
2024/03/07 07:08:38;;;;;;;11.27;4.97;;;2.00;99.90;;;;;;4964701;28;20035;-77
2024/03/07 07:11:04;;;;;;;6.10;5.55;;;2.40;99.90;;;;;;4967043;28;20042;-77
2024/03/07 07:13:31;;;;;;;8.13;5.47;;;2.80;46.70;;;;;;4967931;28;20031;-78
2024/03/07 07:15:57;;;;;;;5.00;4.05;;;3.20;1.00;;;;;;4963157;28;20388;-78
2024/03/07 07:18:23;;;;;;;4.38;3.97;;;3.40;1.00;;;;;;4964805;28;20097;-77
2024/03/07 07:20:51;;;;;;;6.13;4.75;;;3.60;99.90;;;;;;4966137;28;20060;-78
2024/03/07 07:23:19;;;;;;;8.25;3.65;;;3.80;99.90;;;;;;4962899;28;20034;-78
2024/03/07 07:25:46;;;;;;;8.18;3.78;;;4.00;99.90;;;;;;4965227;28;20047;-78
2024/03/07 07:28:13;;;;;;;9.15;5.72;;;4.20;99.90;;;;;;4971799;28;20030;-78
2024/03/07 07:30:39;;;;;;;11.13;3.92;;;4.50;99.90;;;;;;4974061;28;20039;-78
2024/03/07 07:33:05;;;;;;;5.10;4.60;;;4.70;99.90;;;;;;4970335;28;20034;-80
2024/03/07 07:35:34;;;;;;;5.30;4.07;;;4.80;99.90;;;;;;4963756;28;20035;-79
2024/03/07 07:38:00;;;;;;;5.43;4.93;;;4.80;99.90;;;;;;4964002;28;20384;-79
2024/03/07 07:40:28;;;;;;;3.47;3.08;;;4.90;99.90;;;;;;4966667;28;20034;-79
2024/03/07 07:42:54;;;;;;;2.80;2.55;;;4.80;93.20;;;;;;4966245;28;20058;-79
2024/03/07 07:45:23;;;;;;;4.90;4.32;;;5.00;54.50;;;;;;4965066;28;20070;-78
2024/03/07 07:47:51;;;;;;;4.90;4.15;;;5.00;18.10;;;;;;4945644;28;20400;-77
2024/03/07 07:50:19;;;;;;;3.10;2.72;;;5.10;35.10;;;;;;4946600;28;20039;-78
2024/03/07 07:52:50;;;;;;;3.35;3.05;;;5.20;2.90;;;;;;4964963;28;20478;-77
2024/03/07 07:55:17;;;;;;;3.60;2.80;;;5.30;1.00;;;;;;4965186;28;20046;-76
2024/03/07 07:57:45;;;;;;;5.57;2.78;;;5.40;1.00;;;;;;4966669;28;20038;-78
2024/03/07 08:00:21;;;;;;;4.85;3.78;;;5.30;1.00;;;;;;4964010;28;20034;-76
2024/03/07 08:03:01;;;;;;;3.22;2.95;;;5.40;1.00;;;;;;4964597;28;20457;-77
2024/03/07 08:05:32;;;;;;;2.78;2.58;;;5.50;1.00;;;;;;4962966;28;20045;-78
2024/03/07 08:08:04;;;;;;;5.10;3.30;;;5.70;1.00;;;;;;4963798;28;20050;-77
2024/03/07 08:10:31;;;;;;;4.55;4.10;;;5.90;99.90;;;;;;4964923;28;20050;-78
2024/03/07 08:12:58;;;;;;;1.67;1.58;;;6.10;99.90;;;;;;4952328;28;20070;-76
2024/03/07 08:15:27;;;;;;;1.90;1.73;;;5.80;99.90;;;;;;4965055;28;20035;-76
2024/03/07 08:17:55;;;;;;;3.78;3.47;;;5.50;99.90;;;;;;4962369;28;20473;-76
2024/03/07 08:20:22;;;;;;;1.30;1.17;;;5.40;99.90;;;;;;4959307;28;20035;-78
2024/03/07 08:22:53;;;;;;;0.73;0.73;;;5.30;99.90;;;;;;4964954;28;20053;-76
2024/03/07 08:25:22;;;;;;;1.30;0.70;;;5.20;99.90;;;;;;4965367;28;20036;-75
2024/03/07 08:27:50;;;;;;;2.22;2.03;;;5.30;99.90;;;;;;4967134;28;20042;-77
2024/03/07 08:30:16;;;;;;;2.03;1.85;;;5.30;99.90;;;;;;4965548;28;20032;-76
2024/03/07 08:32:48;;;;;;;1.88;1.77;;;5.30;99.90;;;;;;4963266;28;20031;-76
2024/03/07 08:35:16;;;;;;;2.50;2.28;;;5.50;99.90;;;;;;4961239;28;20393;-75
2024/03/07 08:37:44;;;;;;;1.98;1.88;;;5.40;99.90;;;;;;4965966;28;20034;-77
2024/03/07 08:40:18;;;;;;;1.45;1.40;;;5.40;99.90;;;;;;4966215;28;20038;-77
2024/03/07 08:42:47;;;;;;;1.65;1.23;;;5.40;99.90;;;;;;4962031;28;20062;-77
2024/03/07 08:45:17;;;;;;;4.40;1.52;;;5.50;99.90;;;;;;4942041;28;20043;-77
2024/03/07 08:47:43;;;;;;;1.48;1.38;;;5.50;99.90;;;;;;4960073;28;20046;-76
2024/03/07 08:50:09;;;;;;;2.85;2.63;;;5.40;99.90;;;;;;4960362;28;20042;-76
2024/03/07 08:52:37;;;;;;;2.47;2.28;;;5.40;99.90;;;;;;4961400;28;20077;-76
2024/03/07 08:55:04;;;;;;;3.22;2.90;;;5.60;70.30;;;;;;4959402;28;20058;-77
2024/03/07 08:57:31;;;;;;;1.67;1.38;;;5.70;20.10;;;;;;4968840;28;20031;-77
2024/03/07 08:59:57;;;;;;;1.05;1.05;;;5.90;1.00;;;;;;4967139;28;20042;-77
2024/03/07 09:02:23;;;;;;;2.97;1.10;;;5.90;1.00;;;;;;4973444;28;20039;-77
2024/03/07 09:04:49;;;;;;;3.13;2.42;;;6.40;1.00;;;;;;4972815;28;20116;-77
2024/03/07 09:07:17;;;;;;;1.98;1.88;;;6.90;1.00;;;;;;4972257;28;20049;-75
2024/03/07 09:09:45;;;;;;;2.38;1.33;;;7.40;1.00;;;;;;4972160;28;20038;-75
2024/03/07 09:12:12;;;;;;;2.60;2.33;;;7.30;99.90;;;;;;4973429;28;20350;-75
2024/03/07 09:14:38;;;;;;;2.28;1.77;;;7.10;99.90;;;;;;4968570;28;20038;-76
2024/03/07 09:17:04;;;;;;;2.55;2.10;;;7.40;99.90;;;;;;4968726;28;20384;-75
2024/03/07 09:19:31;;;;;;;4.47;4.07;;;7.50;99.90;;;;;;4966205;28;20035;-75
2024/03/07 09:21:57;;;;;;;1.10;1.10;;;7.50;99.90;;;;;;4973234;28;20039;-75
2024/03/07 09:24:23;;;;;;;3.33;1.80;;;7.20;99.90;;;;;;4963261;28;20031;-75
2024/03/07 09:26:50;;;;;;;1.58;1.48;;;7.20;99.90;;;;;;4958525;28;20381;-75
2024/03/07 09:29:18;;;;;;;6.90;2.38;;;7.00;99.90;;;;;;4957611;28;20031;-73
2024/03/07 09:31:51;;;;;;;2.70;1.67;;;7.40;99.90;;;;;;4963054;28;20038;-74
2024/03/07 09:34:20;;;;;;;2.78;1.08;;;8.10;99.90;;;;;;4944815;28;20043;-74
2024/03/07 09:36:47;;;;;;;2.10;1.92;;;8.60;99.90;;;;;;4951463;28;20043;-74
2024/03/07 09:39:13;;;;;;;1.35;1.25;;;8.70;99.90;;;;;;4970128;28;20464;-75
2024/03/07 09:41:39;;;;;;;2.97;1.55;;;8.80;99.90;;;;;;4970965;28;20049;-75
2024/03/07 09:44:08;;;;;;;1.38;1.27;;;8.60;99.90;;;;;;4950835;28;20043;-74
2024/03/07 09:46:36;;;;;;;2.05;1.75;;;7.80;99.90;;;;;;4968901;28;20491;-74
2024/03/07 09:49:02;;;;;;;1.23;1.15;;;7.90;99.90;;;;;;4956714;28;20062;-74
2024/03/07 09:51:30;;;;;;;3.00;2.50;;;7.70;99.90;;;;;;4966067;28;20035;-74
2024/03/07 09:53:59;;;;;;;2.28;1.95;;;7.60;99.90;;;;;;4969701;28;20035;-75
2024/03/07 09:56:28;;;;;;;2.47;2.15;;;7.30;99.90;;;;;;4971624;28;20042;-74
2024/03/07 09:58:59;;;;;;;2.15;1.30;;;7.00;99.90;;;;;;4971795;28;20036;-75
2024/03/07 10:01:26;;;;;;;2.42;1.73;;;7.10;99.90;;;;;;4973797;28;20027;-77
2024/03/07 10:03:58;;;;;;;1.38;1.27;;;7.20;99.90;;;;;;4970183;28;20058;-77
2024/03/07 10:06:29;;;;;;;1.42;1.33;;;7.20;99.90;;;;;;4976272;28;20412;-77
2024/03/07 10:08:56;;;;;;;2.60;2.25;;;7.30;99.90;;;;;;4981119;28;20042;-76
2024/03/07 10:11:24;;;;;;;1.80;1.67;;;7.20;99.90;;;;;;4978076;28;20035;-76
2024/03/07 10:13:51;;;;;;;5.40;4.05;;;7.10;99.90;;;;;;4973094;28;20043;-76
2024/03/07 10:16:18;;;;;;;10.98;1.52;;;6.90;99.90;;;;;;4963917;28;20035;-77
2024/03/07 10:18:45;;;;;;;1.35;1.27;;;7.00;99.90;;;;;;4965364;28;20054;-76
2024/03/07 10:21:17;;;;;;;2.08;1.88;;;7.00;99.90;;;;;;4962813;28;20039;-76
2024/03/07 10:23:43;;;;;;;;;;;7.20;99.90;;;;;;4966826;28;20039;-76
2024/03/07 10:26:10;;;;;;;2.38;2.28;;;7.20;99.90;;;;;;4969459;28;19914;-76
2024/03/07 10:28:38;;;;;;;1.80;1.48;;;7.20;99.90;;;;;;4966075;28;20039;-77
2024/03/07 10:31:11;;;;;;;0.73;0.73;;;7.20;99.90;;;;;;4964546;28;20035;-76
2024/03/07 10:33:40;;;;;;;2.10;1.92;;;7.10;99.90;;;;;;4966445;28;20039;-77
2024/03/07 10:36:09;;;;;;;2.13;1.52;;;7.20;99.90;;;;;;4963744;28;20062;-76
2024/03/07 10:38:38;;;;;;;2.13;2.03;;;7.40;99.90;;;;;;4965587;28;20062;-76
2024/03/07 10:41:08;;;;;;;0.88;0.88;;;7.50;99.90;;;;;;4967778;28;20046;-76
2024/03/07 10:43:39;;;;;;;0.60;0.60;;;7.70;99.90;;;;;;4966656;28;20492;-76
2024/03/07 10:46:07;;;;;;;4.07;2.25;;;7.80;99.90;;;;;;4967087;28;20392;-75
2024/03/07 10:48:41;;;;;;;1.02;0.98;;;7.70;99.90;;;;;;4964090;28;20035;-77
2024/03/07 10:51:35;;;;;;;3.10;1.65;;;7.70;99.90;;;;;;4963140;28;20477;-76
2024/03/07 10:54:21;;;;;;;2.90;2.70;;;7.60;99.90;;;;;;4966355;28;20066;-76
2024/03/07 10:57:15;;;;;;;2.97;1.75;;;7.60;99.90;;;;;;4971289;28;20030;-75
2024/03/07 10:59:49;;;;;;;2.63;2.28;;;7.70;99.90;;;;;;4965933;28;20031;-76
2024/03/07 11:02:33;;;;;;;3.75;3.47;;;7.80;99.90;;;;;;4958817;28;20031;-76
2024/03/07 11:05:00;;;;;;;3.35;1.63;;;7.90;99.90;;;;;;4962153;28;20065;-75
2024/03/07 11:07:27;;;;;;;2.45;1.55;;;8.10;99.90;;;;;;4965594;28;20046;-75
2024/03/07 11:09:55;;;;;;;4.28;2.08;;;8.30;99.90;;;;;;4967883;28;20042;-75
2024/03/07 11:12:24;;;;;;;1.40;1.30;;;8.40;99.90;;;;;;4964105;28;20035;-75
2024/03/07 11:14:51;;;;;;;2.00;1.88;;;8.40;99.90;;;;;;4968307;28;20043;-77
2024/03/07 11:17:20;;;;;;;5.07;1.58;;;8.40;99.90;;;;;;4961471;28;20043;-75
2024/03/07 11:19:48;;;;;;;6.68;2.53;;;8.40;99.90;;;;;;4955946;28;20041;-74
2024/03/07 11:22:35;;;;;;;2.55;1.63;;;8.50;99.90;;;;;;4965394;28;20031;-74
2024/03/07 11:25:10;;;;;;;2.28;2.15;;;8.50;99.90;;;;;;4969094;28;20035;-74
2024/03/07 11:27:39;;;;;;;1.85;1.75;;;8.70;99.90;;;;;;4968921;28;20050;-74
2024/03/07 11:30:08;;;;;;;3.72;3.42;;;8.80;99.90;;;;;;4965445;28;20477;-75
2024/03/07 11:32:37;;;;;;;1.92;1.83;;;8.90;99.90;;;;;;4958003;28;20033;-73
2024/03/07 11:35:15;;;;;;;2.15;1.88;;;9.10;99.90;;;;;;4964118;28;20051;-73
2024/03/07 11:37:47;;;;;;;3.88;2.65;;;9.30;99.90;;;;;;4965260;28;20038;-73
2024/03/07 11:40:20;;;;;;;5.75;2.35;;;9.40;99.90;;;;;;4963013;28;20366;-75
2024/03/07 11:42:49;;;;;;;3.28;2.50;;;9.40;99.90;;;;;;4965090;28;20691;-74
2024/03/07 11:45:24;;;;;;;2.47;1.80;;;9.40;99.90;;;;;;4964111;28;20039;-73
2024/03/07 11:48:08;;;;;;;3.70;1.48;;;9.20;99.90;;;;;;4965660;28;20050;-73
2024/03/07 11:50:43;;;;;;;1.92;1.63;;;9.10;99.90;;;;;;4960320;28;20039;-73
2024/03/07 11:53:09;;;;;;;4.00;3.05;;;8.80;99.90;;;;;;4966710;28;20030;-73
2024/03/07 11:55:45;;;;;;;2.97;2.22;;;8.90;99.90;;;;;;4965658;28;20038;-74
2024/03/07 11:58:16;;;;;;;6.72;3.30;;;9.20;99.90;;;;;;4965721;28;20061;-75
2024/03/07 12:00:44;;;;;;;2.00;1.90;;;9.60;99.90;;;;;;4966085;28;20039;-74
2024/03/07 12:03:21;;;;;;;3.15;2.85;;;9.60;99.90;;;;;;4964527;28;20039;-74
2024/03/07 12:05:48;;;;;;;2.72;1.65;;;9.80;99.90;;;;;;4961829;28;20045;-74
2024/03/07 12:08:15;;;;;;;3.92;3.13;;;10.00;99.90;;;;;;4964610;28;20382;-74
2024/03/07 12:10:45;;;;;;;9.30;3.42;;;9.90;99.90;;;;;;4964651;28;20384;-74
2024/03/07 12:13:15;;;;;;;5.45;3.30;;;9.90;99.90;;;;;;4965756;28;20055;-73
2024/03/07 12:15:42;;;;;;;7.45;2.97;;;9.80;99.90;;;;;;4965078;28;20460;-75
2024/03/07 12:18:10;;;;;;;2.67;1.80;;;10.00;99.90;;;;;;4960556;28;20039;-74
2024/03/07 12:20:37;;;;;;;2.95;2.42;;;10.20;99.90;;;;;;4950354;28;20057;-75
2024/03/07 12:23:11;;;;;;;2.50;2.22;;;10.40;99.90;;;;;;4963487;28;20031;-76
2024/03/07 12:25:42;;;;;;;3.13;2.00;;;10.20;99.90;;;;;;4964861;28;20499;-77
2024/03/07 12:28:12;;;;;;;3.30;2.47;;;10.30;99.90;;;;;;4964579;28;20043;-75
2024/03/07 12:30:53;;;;;;;1.93;1.77;;;10.60;99.90;;;;;;4962309;28;20031;-74
2024/03/07 12:33:22;;;;;;;1.73;1.63;;;10.60;99.90;;;;;;4964008;28;20266;-74
2024/03/07 12:35:51;;;;;;;2.05;1.55;;;10.70;99.90;;;;;;4965368;28;20027;-74
2024/03/07 12:38:19;;;;;;;5.82;2.80;;;10.50;99.90;;;;;;4962434;28;20035;-75
2024/03/07 12:40:46;;;;;;;2.35;2.15;;;10.20;99.90;;;;;;4965366;28;20417;-74
2024/03/07 12:43:21;;;;;;;2.45;2.25;;;10.20;99.90;;;;;;4968393;28;20062;-75
2024/03/07 12:45:51;;;;;;;6.90;2.33;;;10.00;99.90;;;;;;4970877;28;20046;-75
2024/03/07 12:48:19;;;;;;;1.85;1.63;;;10.00;99.90;;;;;;4960820;28;20039;-75
2024/03/07 12:50:46;;;;;;;1.00;0.98;;;10.10;99.90;;;;;;4959276;28;20038;-75
2024/03/07 12:53:12;;;;;;;2.05;1.42;;;10.10;99.90;;;;;;4963099;28;20038;-75
2024/03/07 12:55:42;;;;;;;0.52;0.52;;;10.10;99.90;;;;;;4965728;28;20035;-75
2024/03/07 12:58:11;;;;;;;2.40;1.93;;;10.10;99.90;;;;;;4968004;28;20031;-76
2024/03/07 13:00:38;;;;;;;2.30;1.60;;;10.20;99.90;;;;;;4961497;28;20023;-75
2024/03/07 13:03:05;;;;;;;1.42;1.30;;;10.30;99.90;;;;;;4949599;28;20487;-76